Terminal Aerodrome Forecast
Issued by NWS Melbourne, FL

Current Version | Previous Version | Text Only | Print | Product List | Glossary On
Versions: 1 2 3 4 5 6 7 8 9 10 11 12 13 14 15 16 17 18
778
FTUS42 KMLB 211120
TAFVRB
TAF
KVRB 211120Z 2112/2212 17005KT P6SM FEW025 BKN250
     FM211600 12008KT P6SM VCTS SCT030CB BKN100 BKN250
      TEMPO 2117/2121 TSRA BKN030CB BKN070
     FM212200 15007KT P6SM VCSH SCT040 BKN250
     FM220100 VRB02KT P6SM FEW035 SCT100 BKN200=

USA.gov is the U.S. government's official web portal to all federal, state and local government web resources and services.